sensor_id;sensor_type;location;lat;lon;timestamp;pressure;altitude;pressure_sealevel;temperature;humidity
21449;BME280;10885;52.830;13.788;2023-02-11T06:08:46;102068.41;;;4.23;86.25
21449;BME280;10885;52.830;13.788;2023-02-11T06:14:07;102070.06;;;4.23;86.90
21449;BME280;10885;52.830;13.788;2023-02-11T06:19:29;102084.22;;;4.21;87.15
21449;BME280;10885;52.830;13.788;2023-02-11T06:24:51;102045.56;;;4.23;87.16
21449;BME280;10885;52.830;13.788;2023-02-11T06:30:21;102048.75;;;4.29;87.75
21449;BME280;10885;52.830;13.788;2023-02-11T06:35:41;102032.53;;;4.36;88.87
21449;BME280;10885;52.830;13.788;2023-02-11T06:41:02;102043.75;;;4.38;88.11
21449;BME280;10885;52.830;13.788;2023-02-11T06:46:23;102048.59;;;4.44;89.08
21449;BME280;10885;52.830;13.788;2023-02-11T06:51:44;102056.50;;;4.47;88.77
21449;BME280;10885;52.830;13.788;2023-02-11T06:57:05;102055.50;;;4.53;88.88
21449;BME280;10885;52.830;13.788;2023-02-11T07:02:25;102059.91;;;4.63;88.36
21449;BME280;10885;52.830;13.788;2023-02-11T07:07:46;102045.25;;;4.61;88.68
21449;BME280;10885;52.830;13.788;2023-02-11T07:13:08;102054.16;;;4.73;89.39
21449;BME280;10885;52.830;13.788;2023-02-11T07:18:29;102020.13;;;4.80;88.67
21449;BME280;10885;52.830;13.788;2023-02-11T07:23:50;102028.94;;;4.83;88.74
21449;BME280;10885;52.830;13.788;2023-02-11T07:29:11;102033.47;;;4.86;88.72
21449;BME280;10885;52.830;13.788;2023-02-11T07:34:33;102048.16;;;4.97;88.48
21449;BME280;10885;52.830;13.788;2023-02-11T07:39:54;102040.72;;;5.07;88.71
21449;BME280;10885;52.830;13.788;2023-02-11T07:45:15;102030.72;;;5.09;88.04
21449;BME280;10885;52.830;13.788;2023-02-11T07:50:35;102051.56;;;5.13;88.71
21449;BME280;10885;52.830;13.788;2023-02-11T07:55:56;102050.19;;;5.17;88.73
21449;BME280;10885;52.830;13.788;2023-02-11T08:01:23;102068.63;;;5.23;88.78
21449;BME280;10885;52.830;13.788;2023-02-11T08:06:46;102061.75;;;5.22;89.23
21449;BME280;10885;52.830;13.788;2023-02-11T08:12:07;102078.97;;;5.25;88.48
21449;BME280;10885;52.830;13.788;2023-02-11T08:17:28;102063.88;;;5.26;88.96
21449;BME280;10885;52.830;13.788;2023-02-11T08:22:50;102075.41;;;5.31;88.99
21449;BME280;10885;52.830;13.788;2023-02-11T08:28:11;102070.38;;;5.40;88.89
21449;BME280;10885;52.830;13.788;2023-02-11T08:33:33;102054.06;;;5.38;88.55
21449;BME280;10885;52.830;13.788;2023-02-11T08:38:55;102041.94;;;5.44;89.08
21449;BME280;10885;52.830;13.788;2023-02-11T08:44:28;102058.72;;;5.51;88.59
21449;BME280;10885;52.830;13.788;2023-02-11T08:49:49;102083.25;;;5.50;88.81
21449;BME280;10885;52.830;13.788;2023-02-11T08:55:10;102074.13;;;5.52;89.22
21449;BME280;10885;52.830;13.788;2023-02-11T09:00:31;102049.47;;;5.51;88.66
21449;BME280;10885;52.830;13.788;2023-02-11T09:05:52;102071.31;;;5.58;88.74
21449;BME280;10885;52.830;13.788;2023-02-11T09:11:15;102084.66;;;5.64;88.98
21449;BME280;10885;52.830;13.788;2023-02-11T09:16:36;102084.69;;;5.73;88.56
21449;BME280;10885;52.830;13.788;2023-02-11T09:21:58;102103.69;;;5.76;88.42
21449;BME280;10885;52.830;13.788;2023-02-11T09:27:19;102126.75;;;5.78;89.01
21449;BME280;10885;52.830;13.788;2023-02-11T09:32:40;102100.44;;;5.77;89.48
21449;BME280;10885;52.830;13.788;2023-02-11T09:38:00;102107.03;;;5.84;89.39
21449;BME280;10885;52.830;13.788;2023-02-11T09:43:24;102114.50;;;5.83;89.48
21449;BME280;10885;52.830;13.788;2023-02-11T09:48:49;102123.34;;;5.86;89.97
21449;BME280;10885;52.830;13.788;2023-02-11T09:54:40;102135.47;;;5.89;89.76
21449;BME280;10885;52.830;13.788;2023-02-11T10:00:18;102133.09;;;5.90;89.82
21449;BME280;10885;52.830;13.788;2023-02-11T10:22:54;102111.31;;;6.10;89.74
21449;BME280;10885;52.830;13.788;2023-02-11T10:28:20;102092.31;;;6.15;89.67
21449;BME280;10885;52.830;13.788;2023-02-11T10:39:25;102099.63;;;6.21;89.29
21449;BME280;10885;52.830;13.788;2023-02-11T10:45:03;102087.38;;;6.25;88.41
21449;BME280;10885;52.830;13.788;2023-02-11T10:50:27;102064.00;;;6.29;89.05
21449;BME280;10885;52.830;13.788;2023-02-11T10:55:54;102074.03;;;6.28;89.37
21449;BME280;10885;52.830;13.788;2023-02-11T11:01:16;102070.00;;;6.30;88.94
21449;BME280;10885;52.830;13.788;2023-02-11T11:06:44;102064.63;;;6.27;89.41
21449;BME280;10885;52.830;13.788;2023-02-11T11:12:05;102061.63;;;6.31;88.82
21449;BME280;10885;52.830;13.788;2023-02-11T11:17:26;102081.69;;;6.28;89.25
21449;BME280;10885;52.830;13.788;2023-02-11T11:22:50;102077.50;;;6.37;89.40
21449;BME280;10885;52.830;13.788;2023-02-11T11:28:24;102050.97;;;6.35;89.18
21449;BME280;10885;52.830;13.788;2023-02-11T11:33:47;102065.66;;;6.37;89.74
21449;BME280;10885;52.830;13.788;2023-02-11T11:39:21;102086.00;;;6.46;89.60
21449;BME280;10885;52.830;13.788;2023-02-11T11:44:59;102097.56;;;6.51;89.37
21449;BME280;10885;52.830;13.788;2023-02-11T11:50:31;102103.88;;;6.55;89.41
21449;BME280;10885;52.830;13.788;2023-02-11T12:12:43;102132.19;;;6.75;88.78
21449;BME280;10885;52.830;13.788;2023-02-11T12:52:19;102164.09;;;6.98;88.88
21449;BME280;10885;52.830;13.788;2023-02-11T12:57:43;102167.84;;;7.02;89.24
21449;BME280;10885;52.830;13.788;2023-02-11T13:03:12;102161.09;;;7.02;89.39
21449;BME280;10885;52.830;13.788;2023-02-11T13:08:48;102160.66;;;7.06;90.44
21449;BME280;10885;52.830;13.788;2023-02-11T13:14:23;102147.25;;;7.17;90.31
21449;BME280;10885;52.830;13.788;2023-02-11T13:20:00;102144.84;;;7.28;90.48
21449;BME280;10885;52.830;13.788;2023-02-11T13:26:04;102149.16;;;7.37;90.35
21449;BME280;10885;52.830;13.788;2023-02-11T13:31:29;102144.13;;;7.65;90.51
21449;BME280;10885;52.830;13.788;2023-02-11T13:36:56;102144.91;;;7.64;89.78
21449;BME280;10885;52.830;13.788;2023-02-11T13:42:17;102145.63;;;7.63;90.21
21449;BME280;10885;52.830;13.788;2023-02-11T13:47:39;102139.78;;;7.64;90.82
21449;BME280;10885;52.830;13.788;2023-02-11T13:53:03;102138.88;;;7.64;90.02
21449;BME280;10885;52.830;13.788;2023-02-11T14:04:21;102152.09;;;7.60;90.87
21449;BME280;10885;52.830;13.788;2023-02-11T14:10:01;102139.06;;;7.56;90.79
21449;BME280;10885;52.830;13.788;2023-02-11T14:15:25;102150.38;;;7.41;90.14
21449;BME280;10885;52.830;13.788;2023-02-11T14:20:46;102159.84;;;7.42;90.81
21449;BME280;10885;52.830;13.788;2023-02-11T14:31:46;102180.56;;;7.36;91.88
21449;BME280;10885;52.830;13.788;2023-02-11T14:37:34;102212.47;;;7.42;91.56
21449;BME280;10885;52.830;13.788;2023-02-11T14:43:11;102213.72;;;7.36;91.77
21449;BME280;10885;52.830;13.788;2023-02-11T14:48:34;102221.94;;;7.34;92.00
21449;BME280;10885;52.830;13.788;2023-02-11T14:54:00;102220.44;;;7.36;91.89
21449;BME280;10885;52.830;13.788;2023-02-11T14:59:22;102232.91;;;7.33;92.38
21449;BME280;10885;52.830;13.788;2023-02-11T15:04:43;102238.31;;;7.27;92.71
21449;BME280;10885;52.830;13.788;2023-02-11T15:10:05;102239.97;;;7.27;92.80
21449;BME280;10885;52.830;13.788;2023-02-11T15:15:27;102250.47;;;7.21;93.11
21449;BME280;10885;52.830;13.788;2023-02-11T15:20:49;102256.19;;;7.19;93.88
21449;BME280;10885;52.830;13.788;2023-02-11T15:26:20;102267.91;;;7.16;94.66
21449;BME280;10885;52.830;13.788;2023-02-11T15:31:41;102265.78;;;7.21;94.79
21449;BME280;10885;52.830;13.788;2023-02-11T15:37:03;102248.09;;;7.23;94.34
21449;BME280;10885;52.830;13.788;2023-02-11T15:42:26;102263.97;;;7.20;94.45
21449;BME280;10885;52.830;13.788;2023-02-11T15:47:50;102278.97;;;7.26;94.12
21449;BME280;10885;52.830;13.788;2023-02-11T15:58:43;102291.28;;;7.21;94.33
21449;BME280;10885;52.830;13.788;2023-02-11T16:04:05;102301.66;;;7.23;94.48
21449;BME280;10885;52.830;13.788;2023-02-11T16:09:32;102290.25;;;7.19;94.14
21449;BME280;10885;52.830;13.788;2023-02-11T16:14:53;102300.28;;;7.17;94.19
21449;BME280;10885;52.830;13.788;2023-02-11T16:20:19;102299.38;;;7.26;94.59
21449;BME280;10885;52.830;13.788;2023-02-11T16:25:41;102301.66;;;7.23;93.73
21449;BME280;10885;52.830;13.788;2023-02-11T16:31:03;102304.03;;;7.21;93.99
21449;BME280;10885;52.830;13.788;2023-02-11T16:36:25;102316.94;;;7.23;93.65
21449;BME280;10885;52.830;13.788;2023-02-11T16:41:46;102330.72;;;7.16;93.63
21449;BME280;10885;52.830;13.788;2023-02-11T16:47:19;102355.38;;;7.24;94.14
21449;BME280;10885;52.830;13.788;2023-02-11T16:52:42;102355.06;;;7.21;93.42
21449;BME280;10885;52.830;13.788;2023-02-11T16:58:06;102359.53;;;7.15;93.56
21449;BME280;10885;52.830;13.788;2023-02-11T17:03:27;102356.09;;;7.14;94.36
21449;BME280;10885;52.830;13.788;2023-02-11T17:08:49;102357.59;;;7.12;94.18
21449;BME280;10885;52.830;13.788;2023-02-11T17:14:10;102359.06;;;7.02;94.42
21449;BME280;10885;52.830;13.788;2023-02-11T17:19:31;102354.25;;;6.96;94.32
21449;BME280;10885;52.830;13.788;2023-02-11T17:24:52;102361.44;;;6.91;95.00
21449;BME280;10885;52.830;13.788;2023-02-11T17:30:15;102359.78;;;6.92;94.92
21449;BME280;10885;52.830;13.788;2023-02-11T17:35:38;102372.25;;;6.97;95.58
21449;BME280;10885;52.830;13.788;2023-02-11T17:41:00;102386.53;;;7.22;96.19
21449;BME280;10885;52.830;13.788;2023-02-11T17:46:22;102381.00;;;7.08;95.34
21449;BME280;10885;52.830;13.788;2023-02-11T17:51:43;102383.94;;;6.95;94.46
21449;BME280;10885;52.830;13.788;2023-02-11T17:57:04;102398.31;;;6.86;94.30
21449;BME280;10885;52.830;13.788;2023-02-11T18:02:25;102395.63;;;6.85;94.81
21449;BME280;10885;52.830;13.788;2023-02-11T18:07:46;102406.09;;;6.79;94.80
21449;BME280;10885;52.830;13.788;2023-02-11T18:13:08;102418.84;;;6.79;95.24
21449;BME280;10885;52.830;13.788;2023-02-11T18:18:28;102444.16;;;6.77;95.12
21449;BME280;10885;52.830;13.788;2023-02-11T18:23:50;102447.78;;;6.80;94.59
21449;BME280;10885;52.830;13.788;2023-02-11T18:29:11;102473.88;;;6.86;94.47
21449;BME280;10885;52.830;13.788;2023-02-11T18:34:32;102483.22;;;6.94;94.66
21449;BME280;10885;52.830;13.788;2023-02-11T18:39:52;102494.63;;;6.97;94.21
21449;BME280;10885;52.830;13.788;2023-02-11T18:45:14;102499.44;;;6.94;94.03
21449;BME280;10885;52.830;13.788;2023-02-11T18:50:35;102503.59;;;6.94;93.66
21449;BME280;10885;52.830;13.788;2023-02-11T18:55:56;102509.94;;;6.97;93.86
21449;BME280;10885;52.830;13.788;2023-02-11T19:01:18;102522.69;;;6.97;93.97
21449;BME280;10885;52.830;13.788;2023-02-11T19:06:40;102530.66;;;7.01;93.29
21449;BME280;10885;52.830;13.788;2023-02-11T19:12:02;102527.50;;;7.03;93.11
21449;BME280;10885;52.830;13.788;2023-02-11T19:17:26;102546.59;;;7.07;93.17
21449;BME280;10885;52.830;13.788;2023-02-11T19:22:47;102548.38;;;7.08;92.53
21449;BME280;10885;52.830;13.788;2023-02-11T19:28:08;102544.59;;;7.04;92.56
21449;BME280;10885;52.830;13.788;2023-02-11T19:33:29;102559.34;;;7.07;92.11
21449;BME280;10885;52.830;13.788;2023-02-11T19:38:49;102556.28;;;7.02;91.95
21449;BME280;10885;52.830;13.788;2023-02-11T19:44:12;102562.16;;;7.01;92.63
21449;BME280;10885;52.830;13.788;2023-02-11T19:49:33;102571.28;;;6.99;92.28
21449;BME280;10885;52.830;13.788;2023-02-11T19:54:54;102584.03;;;6.99;91.62
21449;BME280;10885;52.830;13.788;2023-02-11T20:00:15;102582.38;;;7.00;92.62
21449;BME280;10885;52.830;13.788;2023-02-11T20:05:38;102588.81;;;6.96;92.14
21449;BME280;10885;52.830;13.788;2023-02-11T20:11:18;102591.69;;;6.99;92.94
21449;BME280;10885;52.830;13.788;2023-02-11T20:16:41;102599.00;;;6.96;92.61
21449;BME280;10885;52.830;13.788;2023-02-11T20:22:08;102614.03;;;7.02;92.12
21449;BME280;10885;52.830;13.788;2023-02-11T20:27:29;102624.66;;;6.97;92.47
21449;BME280;10885;52.830;13.788;2023-02-11T20:32:51;102641.63;;;6.97;91.99
21449;BME280;10885;52.830;13.788;2023-02-11T20:38:12;102630.81;;;7.00;91.89
21449;BME280;10885;52.830;13.788;2023-02-11T20:43:33;102632.06;;;7.03;92.20
21449;BME280;10885;52.830;13.788;2023-02-11T20:48:58;102641.34;;;7.03;91.29
21449;BME280;10885;52.830;13.788;2023-02-11T20:54:20;102647.53;;;7.05;91.61
21449;BME280;10885;52.830;13.788;2023-02-11T20:59:42;102653.19;;;7.02;91.47
21449;BME280;10885;52.830;13.788;2023-02-11T21:05:03;102651.41;;;7.01;91.63
21449;BME280;10885;52.830;13.788;2023-02-11T21:10:23;102668.66;;;7.04;91.88
21449;BME280;10885;52.830;13.788;2023-02-11T21:15:44;102674.34;;;7.01;91.59
21449;BME280;10885;52.830;13.788;2023-02-11T21:21:05;102686.91;;;7.00;91.55
21449;BME280;10885;52.830;13.788;2023-02-11T21:26:27;102690.31;;;6.91;91.32
21449;BME280;10885;52.830;13.788;2023-02-11T21:31:47;102682.50;;;6.90;91.73
21449;BME280;10885;52.830;13.788;2023-02-11T21:37:09;102694.94;;;6.87;91.94
21449;BME280;10885;52.830;13.788;2023-02-11T21:42:31;102705.69;;;6.84;91.69
21449;BME280;10885;52.830;13.788;2023-02-11T21:47:51;102704.63;;;6.82;91.89
21449;BME280;10885;52.830;13.788;2023-02-11T21:53:13;102716.16;;;6.79;91.86
21449;BME280;10885;52.830;13.788;2023-02-11T21:58:35;102718.72;;;6.79;92.06
21449;BME280;10885;52.830;13.788;2023-02-11T22:03:56;102737.28;;;6.77;92.30
21449;BME280;10885;52.830;13.788;2023-02-11T22:09:17;102739.41;;;6.82;92.44
21449;BME280;10885;52.830;13.788;2023-02-11T22:14:38;102757.38;;;6.74;92.31
21449;BME280;10885;52.830;13.788;2023-02-11T22:19:59;102768.88;;;6.71;92.39
21449;BME280;10885;52.830;13.788;2023-02-11T22:25:20;102776.09;;;6.75;92.65
21449;BME280;10885;52.830;13.788;2023-02-11T22:30:40;102776.16;;;6.68;92.35
21449;BME280;10885;52.830;13.788;2023-02-11T22:36:04;102773.78;;;6.69;92.51
21449;BME280;10885;52.830;13.788;2023-02-11T22:41:26;102787.59;;;6.71;92.61
21449;BME280;10885;52.830;13.788;2023-02-11T22:46:47;102791.22;;;6.73;92.70
